Time;durP1;ratioP1;P1;durP2;ratioP2;P2;SDS_P1;SDS_P2;PMS_P1;PMS_P2;Temp;Humidity;BMP_temperature;BMP_pressure;BME280_temperature;BME280_humidity;BME280_pressure;Samples;Min_cycle;Max_cycle;Signal;HPM_P1;HPM_P2
2022/07/11 00:00:09;;;;;;;10.32;1.85;;;;;;;14.86;65.93;101234.06;5027766;28;20062;-60
2022/07/11 00:02:37;;;;;;;5.75;1.70;;;;;;;14.85;66.00;101238.53;5044022;28;20055;-60
2022/07/11 00:05:04;;;;;;;7.45;2.33;;;;;;;14.84;65.84;101236.84;5068298;28;20060;-60
2022/07/11 00:07:32;;;;;;;7.45;2.10;;;;;;;14.81;66.70;101238.84;5047589;28;20063;-58
2022/07/11 00:09:59;;;;;;;12.45;1.85;;;;;;;14.80;66.71;101232.69;5027914;28;20075;-60
2022/07/11 00:12:26;;;;;;;6.75;1.40;;;;;;;14.79;66.77;101241.59;5029095;28;20060;-60
2022/07/11 00:14:54;;;;;;;7.97;1.77;;;;;;;14.80;66.63;101237.16;5050242;28;20048;-59
2022/07/11 00:17:22;;;;;;;7.72;1.50;;;;;;;14.73;67.02;101236.72;5041200;28;20060;-59
2022/07/11 00:19:50;;;;;;;6.50;1.95;;;;;;;14.72;67.10;101239.44;5047737;28;20057;-61
2022/07/11 00:22:18;;;;;;;7.28;1.98;;;;;;;14.66;67.41;101236.25;5049129;28;20064;-56
2022/07/11 00:24:45;;;;;;;10.13;1.85;;;;;;;14.60;67.70;101226.09;5025252;28;20106;-59
2022/07/11 00:27:13;;;;;;;13.23;1.65;;;;;;;14.52;68.06;101230.19;5044747;28;20060;-58
2022/07/11 00:29:40;;;;;;;9.05;2.20;;;;;;;14.46;68.27;101228.75;5048164;28;20421;-61
2022/07/11 00:32:08;;;;;;;9.90;1.60;;;;;;;14.44;68.35;101231.50;5047629;28;20068;-63
2022/07/11 00:34:35;;;;;;;5.68;1.95;;;;;;;14.39;68.72;101230.09;5038297;28;20049;-60
2022/07/11 00:37:02;;;;;;;9.27;1.80;;;;;;;14.32;68.99;101223.50;5034216;28;20060;-58
2022/07/11 00:39:30;;;;;;;8.30;2.35;;;;;;;14.27;69.52;101217.66;5033489;28;20059;-58
2022/07/11 00:41:57;;;;;;;11.18;1.98;;;;;;;14.22;69.19;101222.41;5031662;28;20045;-59
2022/07/11 00:44:24;;;;;;;10.02;1.80;;;;;;;14.17;69.87;101226.19;5039032;28;20059;-59
2022/07/11 00:46:52;;;;;;;10.43;1.85;;;;;;;14.14;70.02;101226.41;5050727;28;20045;-59
2022/07/11 00:49:19;;;;;;;8.73;1.60;;;;;;;14.08;70.77;101224.13;5052562;28;20389;-59
2022/07/11 00:51:46;;;;;;;9.05;1.88;;;;;;;14.05;70.22;101224.34;5041778;28;20052;-59
2022/07/11 00:54:14;;;;;;;10.07;2.20;;;;;;;14.02;70.76;101235.13;5033460;28;20056;-59
2022/07/11 00:56:41;;;;;;;9.52;1.90;;;;;;;13.99;71.11;101221.22;5016418;28;20454;-60
2022/07/11 00:59:09;;;;;;;8.27;2.03;;;;;;;13.92;71.39;101226.91;5052167;28;20049;-59
2022/07/11 01:01:37;;;;;;;7.45;1.80;;;;;;;13.87;71.44;101217.56;5038428;28;20049;-57
2022/07/11 01:04:05;;;;;;;11.15;1.65;;;;;;;13.84;71.65;101223.91;5038402;28;20087;-59
2022/07/11 01:06:32;;;;;;;11.50;1.80;;;;;;;13.80;72.23;101221.53;5054473;22;20057;-75
2022/07/11 01:09:00;;;;;;;8.43;2.17;;;;;;;13.77;72.55;101224.38;5047861;28;20124;-75
2022/07/11 01:11:27;;;;;;;7.40;2.05;;;;;;;13.72;73.61;101223.81;5048269;28;20045;-73
2022/07/11 01:13:54;;;;;;;13.70;2.30;;;;;;;13.66;72.97;101220.59;5034986;28;20056;-76
2022/07/11 01:16:22;;;;;;;12.90;2.75;;;;;;;13.66;72.91;101223.25;5030927;28;20068;-74
2022/07/11 01:18:52;;;;;;;9.93;2.17;;;;;;;13.62;73.37;101227.03;5052222;28;20037;-74
2022/07/11 01:21:30;;;;;;;5.45;1.75;;;;;;;13.55;74.32;101232.78;5032171;28;20041;-75
2022/07/11 01:23:59;;;;;;;9.10;1.58;;;;;;;13.50;74.43;101230.44;5034186;28;20063;-75
2022/07/11 01:26:26;;;;;;;10.98;2.08;;;;;;;13.46;74.49;101225.41;5045293;28;20051;-74
2022/07/11 01:28:57;;;;;;;8.55;1.70;;;;;;;13.41;74.55;101225.69;5014190;28;20053;-74
2022/07/11 01:31:25;;;;;;;11.15;2.17;;;;;;;13.37;74.54;101225.06;5030928;28;20061;-74
2022/07/11 01:33:52;;;;;;;5.68;1.55;;;;;;;13.34;75.31;101227.03;5034284;28;20037;-74
2022/07/11 01:36:19;;;;;;;9.45;1.77;;;;;;;13.29;75.34;101224.69;5029106;28;20037;-75
2022/07/11 01:38:47;;;;;;;14.05;1.50;;;;;;;13.23;76.30;101229.47;5014184;28;20677;-75
2022/07/11 01:41:14;;;;;;;13.52;2.55;;;;;;;13.18;76.13;101232.34;5029198;28;20059;-75
2022/07/11 01:43:41;;;;;;;6.20;2.05;;;;;;;13.16;76.17;101229.81;5014549;28;20059;-74
2022/07/11 01:46:09;;;;;;;6.40;1.52;;;;;;;13.14;76.32;101236.13;5045252;28;20042;-74
2022/07/11 01:48:36;;;;;;;12.05;2.22;;;;;;;13.10;76.93;101230.19;5033081;28;20059;-75
2022/07/11 01:51:03;;;;;;;7.53;1.70;;;;;;;13.04;76.98;101227.91;5048025;28;20045;-75
2022/07/11 01:53:31;;;;;;;10.30;2.00;;;;;;;13.00;77.56;101226.38;5033617;28;20393;-75
2022/07/11 01:55:58;;;;;;;13.45;1.75;;;;;;;12.97;77.43;101229.22;5013973;28;20053;-74
2022/07/11 01:58:45;;;;;;;7.22;1.50;;;;;;;12.91;77.59;101227.78;5031458;28;20049;-75
2022/07/11 02:01:12;;;;;;;11.10;2.05;;;;;;;12.87;77.64;101228.03;5028608;28;20050;-74
2022/07/11 02:03:40;;;;;;;5.57;1.65;;;;;;;12.82;77.70;101225.66;5031317;28;20049;-74
2022/07/11 02:06:08;;;;;;;7.03;1.50;;;;;;;12.77;78.39;101224.25;5048764;28;20045;-75
2022/07/11 02:08:36;;;;;;;10.63;1.90;;;;;;;12.74;78.28;101233.19;5050299;28;20529;-75
2022/07/11 02:11:04;;;;;;;8.40;2.08;;;;;;;12.71;78.78;101232.53;5028434;28;20056;-75
2022/07/11 02:13:31;;;;;;;7.15;1.85;;;;;;;12.65;78.56;101223.16;5019055;28;20059;-74
2022/07/11 02:15:59;;;;;;;8.23;2.25;;;;;;;12.62;78.76;101221.56;5054501;28;20053;-75
2022/07/11 02:18:26;;;;;;;10.18;2.40;;;;;;;12.59;79.45;101223.53;5050014;28;20049;-76
2022/07/11 02:20:54;;;;;;;8.50;2.08;;;;;;;12.56;79.59;101219.28;5052384;28;20052;-76
2022/07/11 02:23:21;;;;;;;8.05;1.63;;;;;;;12.53;79.67;101219.44;5017573;28;20459;-76
2022/07/11 02:25:49;;;;;;;10.10;2.00;;;;;;;12.50;80.05;101216.97;5042922;28;20041;-77
2022/07/11 02:28:16;;;;;;;12.75;2.38;;;;;;;12.45;80.94;101221.69;5048915;28;20140;-77
2022/07/11 02:30:43;;;;;;;12.23;1.75;;;;;;;12.41;80.19;101228.06;5047881;28;20045;-76
2022/07/11 02:33:15;;;;;;;12.23;1.75;;;;;;;12.38;81.21;101220.31;5033681;28;20056;-76
2022/07/11 02:35:47;;;;;;;6.20;1.63;;;;;;;12.36;80.40;101223.06;5032252;28;20063;-76
2022/07/11 02:38:14;;;;;;;10.82;2.47;;;;;;;12.34;82.11;101226.72;5054590;28;20049;-76
2022/07/11 02:40:44;;;;;;;6.60;2.10;;;;;;;12.29;82.16;101226.13;5008657;28;20433;-77
2022/07/11 02:43:12;;;;;;;12.38;2.63;;;;;;;12.25;82.45;101233.38;5029386;28;20208;-77
2022/07/11 02:45:39;;;;;;;9.20;1.60;;;;;;;12.22;82.87;101230.91;5044488;28;20068;-76
2022/07/11 02:48:07;;;;;;;7.90;2.22;;;;;;;12.21;82.45;101231.84;5050598;28;20136;-76
2022/07/11 02:50:34;;;;;;;8.20;1.88;;;;;;;12.20;82.55;101229.28;5043852;28;20041;-76
2022/07/11 02:53:01;;;;;;;10.50;2.33;;;;;;;12.17;83.62;101238.22;5029035;28;20062;-76
2022/07/11 02:55:28;;;;;;;10.95;1.42;;;;;;;12.14;83.86;101233.97;5028418;28;20061;-76
2022/07/11 02:57:55;;;;;;;10.15;2.40;;;;;;;12.13;83.46;101232.25;5028227;28;20041;-76
2022/07/11 03:00:23;;;;;;;9.30;2.83;;;;;;;12.13;83.81;101239.34;5051340;28;20663;-75
2022/07/11 03:02:50;;;;;;;9.40;1.83;;;;;;;12.10;84.24;101234.22;5044841;28;20434;-76
2022/07/11 03:05:17;;;;;;;7.88;1.35;;;;;;;12.07;84.22;101234.41;5027206;28;20066;-77
2022/07/11 03:07:44;;;;;;;14.13;2.08;;;;;;;12.05;84.24;101233.63;5028689;28;20479;-76
2022/07/11 03:10:11;;;;;;;11.77;2.85;;;;;;;12.03;83.79;101249.56;5011239;28;20055;-76
2022/07/11 03:12:39;;;;;;;10.23;2.22;;;;;;;12.00;84.65;101248.88;5013050;28;20053;-77
2022/07/11 03:15:07;;;;;;;8.27;2.05;;;;;;;11.98;84.91;101248.97;5034818;28;20157;-77
2022/07/11 03:17:35;;;;;;;11.48;2.58;;;;;;;11.95;84.69;101246.47;5028207;28;20144;-76
2022/07/11 03:20:04;;;;;;;10.85;1.63;;;;;;;11.96;85.09;101253.44;5010846;28;20133;-75
2022/07/11 03:22:31;;;;;;;8.43;1.73;;;;;;;11.89;85.04;101249.47;5026124;28;20072;-76
2022/07/11 03:25:00;;;;;;;13.85;2.17;;;;;;;11.88;85.37;101247.72;5044956;28;20064;-76
2022/07/11 03:27:27;;;;;;;9.40;2.30;;;;;;;11.85;85.42;101248.78;5028109;28;20076;-76
2022/07/11 03:29:54;;;;;;;10.35;2.92;;;;;;;11.84;85.62;101246.19;4994253;28;20057;-76
2022/07/11 03:32:22;;;;;;;11.00;1.98;;;;;;;11.81;85.78;101251.63;5012322;28;20060;-76
2022/07/11 03:37:41;;;;;;;13.50;2.53;;;;;;;11.77;86.04;101247.44;5030436;28;20307;-76
2022/07/11 03:40:09;;;;;;;13.02;2.45;;;;;;;11.75;85.90;101247.53;5026820;28;20542;-75
2022/07/11 03:42:37;;;;;;;15.60;2.70;;;;;;;11.76;85.68;101251.88;5013475;28;20053;-76
2022/07/11 03:45:05;;;;;;;9.60;2.03;;;;;;;11.74;86.15;101252.88;5007435;28;20048;-76
2022/07/11 03:47:32;;;;;;;11.60;2.20;;;;;;;11.73;86.08;101240.63;5040485;28;20053;-76
2022/07/11 03:50:00;;;;;;;12.48;2.45;;;;;;;11.76;86.15;101251.03;5046596;28;20419;-77
2022/07/11 03:52:28;;;;;;;8.23;2.13;;;;;;;11.78;85.83;101249.16;5047643;28;20055;-75
2022/07/11 03:54:55;;;;;;;8.18;1.42;;;;;;;11.78;86.21;101251.78;5014278;28;20056;-77
2022/07/11 03:57:22;;;;;;;11.07;1.88;;;;;;;11.80;85.66;101252.56;5003545;28;20049;-76
2022/07/11 03:59:49;;;;;;;8.98;1.88;;;;;;;11.77;86.33;101255.38;5028361;28;20564;-76
2022/07/11 04:02:17;;;;;;;9.05;1.80;;;;;;;11.78;86.51;101250.00;5029096;28;20041;-75
2022/07/11 04:04:44;;;;;;;10.90;2.28;;;;;;;11.80;86.22;101255.22;5010900;28;20049;-76
2022/07/11 04:07:11;;;;;;;12.70;2.10;;;;;;;11.81;85.96;101252.47;5026268;28;20068;-76
2022/07/11 04:09:38;;;;;;;11.57;2.03;;;;;;;11.82;85.89;101254.19;5010963;28;20068;-76
2022/07/11 04:12:06;;;;;;;11.75;2.30;;;;;;;11.77;86.84;101242.16;5011228;28;20378;-76
2022/07/11 04:14:33;;;;;;;11.02;1.80;;;;;;;11.77;86.88;101250.09;5030931;28;20525;-76
2022/07/11 04:17:01;;;;;;;6.78;1.90;;;;;;;11.81;86.29;101256.91;5044488;28;20521;-76
2022/07/11 04:19:28;;;;;;;13.55;2.60;;;;;;;11.85;86.45;101254.03;5031574;28;20041;-77
2022/07/11 04:21:55;;;;;;;8.30;2.42;;;;;;;11.89;86.24;101252.94;5029032;28;20067;-76
2022/07/11 04:24:22;;;;;;;7.63;2.20;;;;;;;11.90;86.17;101253.78;5027663;28;20052;-77
2022/07/11 04:26:50;;;;;;;10.00;2.10;;;;;;;11.90;86.22;101252.00;5039686;28;20053;-77
2022/07/11 04:29:17;;;;;;;11.10;2.13;;;;;;;11.88;86.09;101253.84;5031050;28;20048;-77
2022/07/11 04:31:44;;;;;;;7.40;2.50;;;;;;;11.92;86.17;101257.19;5042025;28;20208;-76
2022/07/11 04:34:12;;;;;;;10.70;2.47;;;;;;;12.00;85.74;101256.78;5028962;28;20429;-75
2022/07/11 04:36:39;;;;;;;13.10;1.88;;;;;;;12.07;86.03;101258.16;5027261;28;20148;-76
2022/07/11 04:39:06;;;;;;;16.33;2.70;;;;;;;12.06;85.91;101248.50;5027445;28;20049;-76
2022/07/11 04:41:33;;;;;;;10.02;2.30;;;;;;;12.04;86.04;101251.25;5039583;28;20067;-76
2022/07/11 04:44:01;;;;;;;10.38;2.17;;;;;;;12.09;85.87;101253.63;5031200;28;20056;-76
2022/07/11 04:46:29;;;;;;;10.98;2.10;;;;;;;12.20;85.49;101250.38;5047780;28;20057;-77
2022/07/11 04:48:56;;;;;;;9.52;2.42;;;;;;;12.25;85.43;101256.25;5046805;28;20543;-77
2022/07/11 04:51:24;;;;;;;7.10;1.75;;;;;;;12.31;85.46;101255.94;5025944;28;20423;-77
2022/07/11 04:53:51;;;;;;;11.77;2.90;;;;;;;12.32;84.92;101257.63;5027988;28;20447;-76
2022/07/11 04:56:18;;;;;;;11.20;2.50;;;;;;;12.37;85.01;101258.22;5025552;28;20061;-75
2022/07/11 04:58:45;;;;;;;16.92;3.00;;;;;;;12.38;84.74;101257.28;5027691;28;20054;-77
2022/07/11 05:01:13;;;;;;;12.52;1.90;;;;;;;12.40;84.38;101253.63;4993682;28;20492;-76
2022/07/11 05:03:40;;;;;;;22.92;3.17;;;;;;;12.46;84.61;101255.06;5043643;28;20059;-75
2022/07/11 05:06:08;;;;;;;13.02;2.42;;;;;;;12.49;85.01;101254.03;5028547;28;20053;-78
2022/07/11 05:08:36;;;;;;;11.68;2.30;;;;;;;12.57;84.33;101262.41;5032413;28;20454;-75
2022/07/11 05:11:04;;;;;;;15.52;2.70;;;;;;;12.57;84.61;101265.03;5009489;28;20042;-76
2022/07/11 05:13:32;;;;;;;11.25;2.35;;;;;;;12.62;83.86;101269.09;5016350;28;20057;-76
2022/07/11 05:15:59;;;;;;;10.15;2.03;;;;;;;12.61;84.45;101266.56;5049939;28;20048;-76
2022/07/11 05:18:26;;;;;;;13.10;2.33;;;;;;;12.65;84.12;101276.88;5051756;28;20055;-75
2022/07/11 05:20:54;;;;;;;15.95;2.33;;;;;;;12.76;84.15;101278.88;5035947;28;20048;-77
2022/07/11 05:23:21;;;;;;;15.27;2.35;;;;;;;12.79;83.96;101273.44;5052500;28;20060;-77
2022/07/11 05:25:48;;;;;;;8.20;1.77;;;;;;;12.82;83.84;101277.66;5034599;28;20053;-76
2022/07/11 05:28:15;;;;;;;13.40;2.38;;;;;;;12.83;84.04;101269.69;5014378;28;20425;-75
2022/07/11 05:30:43;;;;;;;7.68;2.40;;;;;;;12.89;83.37;101263.16;5028271;28;20060;-75
2022/07/11 05:33:10;;;;;;;18.75;2.95;;;;;;;13.01;83.28;101273.00;5014751;28;20472;-76
2022/07/11 05:35:37;;;;;;;13.13;2.33;;;;;;;13.05;82.91;101285.09;5039063;28;20045;-76
2022/07/11 05:38:04;;;;;;;9.38;2.40;;;;;;;13.11;82.73;101282.13;5030427;28;20053;-75
2022/07/11 05:40:31;;;;;;;17.30;3.00;;;;;;;13.18;82.67;101283.44;5045123;28;20396;-75
2022/07/11 05:43:00;;;;;;;12.25;2.28;;;;;;;13.13;82.46;101282.88;5030851;28;20515;-76
2022/07/11 05:45:28;;;;;;;17.52;2.85;;;;;;;13.22;82.91;101283.25;5044110;28;20148;-76
2022/07/11 05:47:55;;;;;;;7.50;1.80;;;;;;;13.22;82.74;101286.78;5017232;28;20056;-76
2022/07/11 05:50:22;;;;;;;12.68;2.85;;;;;;;13.31;82.61;101286.25;5031316;28;20055;-76
2022/07/11 05:52:49;;;;;;;21.00;3.63;;;;;;;13.29;82.78;101290.78;5046859;28;20062;-74
2022/07/11 05:55:16;;;;;;;16.92;2.53;;;;;;;13.34;82.93;101279.94;5028690;28;20057;-76
2022/07/11 05:57:45;;;;;;;15.48;3.40;;;;;;;13.50;82.67;101293.06;5013835;28;20053;-76
2022/07/11 06:00:13;;;;;;;15.93;2.58;;;;;;;13.63;82.25;101288.72;5028492;28;20140;-76
2022/07/11 06:02:42;;;;;;;17.00;2.55;;;;;;;13.74;81.74;101290.75;5036831;28;20072;-76
2022/07/11 06:05:11;;;;;;;16.02;2.60;;;;;;;13.71;81.82;101294.41;5031445;28;20052;-76
2022/07/11 06:10:27;;;;;;;17.70;2.72;;;;;;;13.98;80.63;101298.94;5048383;28;20045;-76
2022/07/11 06:12:55;;;;;;;10.73;2.58;;;;;;;14.07;80.75;101298.38;5013387;28;20053;-76
2022/07/11 06:15:22;;;;;;;13.52;3.20;;;;;;;14.14;79.72;101297.91;5038600;28;20055;-77
2022/07/11 06:17:50;;;;;;;11.05;1.92;;;;;;;14.23;79.67;101300.88;5032657;28;20136;-76
2022/07/11 06:20:17;;;;;;;9.27;2.10;;;;;;;14.13;80.28;101293.53;5040110;28;20041;-76
2022/07/11 06:22:45;;;;;;;8.43;2.33;;;;;;;14.15;80.09;101302.25;5032550;28;20107;-76
2022/07/11 06:25:12;;;;;;;11.65;2.47;;;;;;;14.22;80.51;101294.75;5044126;28;20080;-76
2022/07/11 06:27:39;;;;;;;11.13;2.88;;;;;;;14.39;79.95;101310.41;5014595;28;20533;-76
2022/07/11 06:30:07;;;;;;;8.77;1.63;;;;;;;14.42;79.96;101302.28;5027743;28;20053;-76
2022/07/11 06:32:34;;;;;;;11.60;2.17;;;;;;;14.29;79.74;101311.09;5030856;28;20054;-77
2022/07/11 06:35:01;;;;;;;11.23;2.00;;;;;;;14.39;79.99;101305.13;5028822;28;20045;-76
2022/07/11 06:37:29;;;;;;;14.15;2.92;;;;;;;14.51;79.21;101302.69;5039790;28;20059;-76
2022/07/11 06:39:56;;;;;;;13.02;1.90;;;;;;;14.54;78.93;101299.81;5016065;28;21369;-76
2022/07/11 06:42:23;;;;;;;11.63;2.28;;;;;;;14.52;79.43;101299.91;5012789;28;20045;-76
2022/07/11 06:44:52;;;;;;;11.18;3.08;;;;;;;14.73;78.95;101302.13;5033839;28;20071;-76
2022/07/11 06:47:19;;;;;;;15.10;2.67;;;;;;;14.70;79.33;101300.53;5042704;28;20056;-76
2022/07/11 06:49:46;;;;;;;21.27;3.08;;;;;;;14.93;78.95;101288.41;5047194;28;20495;-76
2022/07/11 06:52:14;;;;;;;29.58;4.00;;;;;;;15.11;77.91;101294.28;5031339;28;21180;-76
2022/07/11 06:54:42;;;;;;;14.07;2.47;;;;;;;15.13;77.92;101287.03;5044896;28;20511;-76
2022/07/11 06:57:09;;;;;;;17.90;2.40;;;;;;;15.16;77.70;101295.66;5027850;28;20057;-76
2022/07/11 06:59:38;;;;;;;9.85;2.03;;;;;;;15.30;76.91;101293.88;5027884;28;20045;-75
2022/07/11 07:02:06;;;;;;;11.07;2.30;;;;;;;15.38;76.28;101296.84;5014000;28;20049;-74
2022/07/11 07:04:33;;;;;;;10.27;2.05;;;;;;;15.44;76.02;101293.78;5042777;28;20422;-75
2022/07/11 07:07:01;;;;;;;11.73;2.47;;;;;;;15.49;75.89;101297.00;5027031;28;20064;-76
2022/07/11 07:09:29;;;;;;;9.90;2.30;;;;;;;15.71;75.82;101304.31;5027455;28;20052;-76
2022/07/11 07:11:57;;;;;;;15.27;2.50;;;;;;;15.80;74.88;101303.66;5049869;28;20586;-75
2022/07/11 07:14:25;;;;;;;10.02;2.15;;;;;;;15.80;75.17;101297.50;5040596;28;20143;-75
2022/07/11 07:16:52;;;;;;;11.63;2.63;;;;;;;15.88;74.54;101298.69;5029654;28;20041;-75
2022/07/11 07:19:20;;;;;;;12.60;2.80;;;;;;;15.97;74.60;101305.16;5016123;28;20053;-76
2022/07/11 07:21:48;;;;;;;11.13;2.65;;;;;;;15.99;74.17;101305.06;5037562;28;20073;-77
2022/07/11 07:24:15;;;;;;;9.30;2.00;;;;;;;16.15;73.83;101309.16;5048393;28;20076;-76
2022/07/11 07:26:44;;;;;;;16.98;2.90;;;;;;;16.15;73.33;101313.63;5065057;28;20041;-76
2022/07/11 07:29:12;;;;;;;10.57;2.28;;;;;;;15.98;73.66;101308.66;5048452;28;20056;-76
2022/07/11 07:31:39;;;;;;;17.27;2.90;;;;;;;16.00;74.08;101314.72;5012739;28;20524;-77
2022/07/11 07:34:08;;;;;;;15.50;2.88;;;;;;;16.04;73.94;101311.75;5028143;28;20061;-77
2022/07/11 07:36:36;;;;;;;9.02;2.30;;;;;;;16.09;73.27;101317.56;5025572;28;20095;-76
2022/07/11 07:39:03;;;;;;;14.23;2.40;;;;;;;16.10;73.18;101318.41;5011758;28;20243;-74
2022/07/11 07:41:30;;;;;;;13.68;2.72;;;;;;;16.14;73.25;101318.09;5031418;28;20053;-75
2022/07/11 07:43:57;;;;;;;12.95;2.38;;;;;;;16.18;73.02;101313.41;5028015;28;20061;-76
2022/07/11 07:46:25;;;;;;;7.88;2.25;;;;;;;16.20;73.19;101314.13;5043834;28;20033;-76
2022/07/11 07:48:52;;;;;;;10.40;1.92;;;;;;;16.32;72.42;101325.69;5037210;28;20045;-76
2022/07/11 07:51:21;;;;;;;13.00;1.88;;;;;;;16.44;71.68;101330.16;5025330;28;20052;-76
2022/07/11 07:53:48;;;;;;;17.63;2.90;;;;;;;16.41;71.39;101330.34;5028254;28;20061;-76
2022/07/11 07:56:23;;;;;;;10.87;1.87;;;;;;;16.57;71.20;101330.94;5026938;28;20041;-75
2022/07/11 07:58:51;;;;;;;9.70;1.77;;;;;;;16.69;70.76;101330.03;5027699;28;20060;-75
2022/07/11 08:01:36;;;;;;;14.60;2.22;;;;;;;16.63;71.22;101325.19;5013253;28;20522;-76
2022/07/11 08:04:05;;;;;;;13.10;2.15;;;;;;;16.74;70.18;101329.72;5031558;28;20484;-76
2022/07/11 08:06:37;;;;;;;16.65;2.30;;;;;;;16.87;68.14;101337.66;5041611;28;20049;-76
2022/07/11 08:09:05;;;;;;;11.30;2.10;;;;;;;16.96;68.12;101335.16;4995261;28;20516;-76
2022/07/11 08:11:33;;;;;;;13.45;2.83;;;;;;;17.03;67.87;101330.25;5009067;28;20052;-76
2022/07/11 08:14:02;;;;;;;10.57;2.15;;;;;;;17.18;67.91;101334.41;5042056;28;20063;-76
2022/07/11 08:16:31;;;;;;;8.30;1.55;;;;;;;17.19;67.25;101322.78;5030485;28;20049;-75
2022/07/11 08:19:00;;;;;;;14.65;2.40;;;;;;;17.18;67.50;101329.06;5031031;28;20053;-74
2022/07/11 08:21:28;;;;;;;10.52;2.45;;;;;;;17.27;67.84;101327.53;5045550;28;20435;-74
2022/07/11 08:23:56;;;;;;;8.95;2.20;;;;;;;17.38;66.07;101319.59;5031499;28;20047;-74
2022/07/11 08:26:24;;;;;;;14.57;2.40;;;;;;;17.63;66.33;101326.53;5008982;28;20052;-74
2022/07/11 08:29:00;;;;;;;19.30;3.30;;;;;;;17.75;64.82;101326.59;5012218;28;20049;-74
2022/07/11 08:31:27;;;;;;;10.07;2.20;;;;;;;17.93;63.87;101330.47;5027785;28;20061;-74
2022/07/11 08:33:57;;;;;;;7.30;1.80;;;;;;;18.13;61.60;101328.88;5033051;28;20046;-74
2022/07/11 08:36:25;;;;;;;13.38;1.98;;;;;;;18.25;61.52;101333.25;5025437;28;20056;-74
2022/07/11 08:38:52;;;;;;;15.13;2.70;;;;;;;18.39;61.71;101338.31;5027001;28;20160;-74
2022/07/11 08:41:19;;;;;;;8.70;2.22;;;;;;;18.20;62.47;101328.28;5041977;28;20064;-74
2022/07/11 08:43:46;;;;;;;8.13;2.00;;;;;;;18.09;63.30;101336.25;5026670;28;20046;-74
2022/07/11 08:46:14;;;;;;;6.15;1.63;;;;;;;18.04;62.87;101342.94;5046927;28;20137;-73
2022/07/11 08:48:42;;;;;;;12.88;1.92;;;;;;;17.97;62.52;101331.94;5046867;28;20057;-73
2022/07/11 08:51:10;;;;;;;17.35;2.15;;;;;;;18.07;61.67;101330.22;5034425;28;20056;-73
2022/07/11 08:53:44;;;;;;;11.05;2.15;;;;;;;18.13;61.28;101337.72;5029221;28;20057;-73
2022/07/11 08:56:17;;;;;;;10.48;1.77;;;;;;;18.40;60.21;101333.81;5028933;28;20080;-74
2022/07/11 08:58:46;;;;;;;8.23;1.60;;;;;;;18.55;58.90;101329.06;5030203;28;20443;-73
2022/07/11 09:01:32;;;;;;;10.32;1.77;;;;;;;18.79;58.36;101335.09;4998915;28;20053;-74
2022/07/11 09:04:00;;;;;;;13.75;2.25;;;;;;;18.90;58.13;101342.22;5012719;28;20057;-74
2022/07/11 09:06:28;;;;;;;11.70;1.75;;;;;;;19.14;56.55;101326.84;5042319;28;20053;-75
2022/07/11 09:08:59;;;;;;;10.63;2.20;;;;;;;19.50;56.46;101327.38;4998878;28;20049;-74
2022/07/11 09:11:27;;;;;;;16.35;2.20;;;;;;;19.59;54.99;101323.91;4997821;28;20037;-73
2022/07/11 09:13:54;;;;;;;8.57;1.73;;;;;;;19.82;55.59;101318.44;5056436;28;20055;-73
2022/07/11 09:16:26;;;;;;;6.45;1.92;;;;;;;20.04;54.51;101328.94;5044761;28;20056;-73
2022/07/11 09:18:59;;;;;;;10.73;1.40;;;;;;;19.91;54.29;101325.66;5036191;28;20049;-73
2022/07/11 09:26:57;;;;;;;3.97;1.38;;;;;;;20.22;53.08;101338.03;5027969;28;19932;-73
2022/07/11 09:29:25;;;;;;;10.65;1.80;;;;;;;20.13;52.49;101329.97;5014476;28;20053;-72
2022/07/11 09:31:53;;;;;;;8.68;1.83;;;;;;;20.03;52.59;101324.56;5028339;28;20410;-73
2022/07/11 09:34:23;;;;;;;10.27;2.13;;;;;;;20.24;53.13;101322.66;5024020;28;20049;-73
2022/07/11 09:36:54;;;;;;;13.88;2.30;;;;;;;20.35;53.38;101327.06;5027947;28;20285;-73
2022/07/11 09:39:23;;;;;;;7.75;2.00;;;;;;;20.08;53.43;101322.31;5014686;28;20131;-74
2022/07/11 09:41:52;;;;;;;6.20;1.92;;;;;;;20.26;52.92;101325.19;5028202;28;20337;-73
2022/07/11 09:44:28;;;;;;;6.63;1.60;;;;;;;20.51;52.65;101325.75;5021003;28;20139;-73
2022/07/11 09:46:56;;;;;;;5.05;1.92;;;;;;;20.93;51.88;101323.66;5047724;28;20070;-74
2022/07/11 09:49:35;;;;;;;24.60;3.42;;;;;;;21.24;50.92;101332.38;5033883;28;20057;-73
2022/07/11 09:52:06;;;;;;;7.57;2.08;;;;;;;21.04;50.49;101320.84;5027118;28;20049;-73
2022/07/11 09:54:34;;;;;;;10.57;2.42;;;;;;;20.84;50.63;101321.81;5064311;28;20055;-73
2022/07/11 09:57:09;;;;;;;6.22;1.30;;;;;;;20.94;50.58;101325.38;5034991;28;20152;-74
2022/07/11 09:59:37;;;;;;;15.55;2.88;;;;;;;20.94;49.96;101317.34;5037377;28;20129;-73
2022/07/11 10:02:05;;;;;;;4.60;1.20;;;;;;;20.61;48.45;101326.59;5014078;28;20050;-73
2022/07/11 10:04:32;;;;;;;4.60;0.88;;;;;;;20.58;48.96;101327.72;5049423;28;20049;-73
2022/07/11 10:07:00;;;;;;;5.78;1.25;;;;;;;20.66;49.14;101324.34;5046933;28;20048;-73
2022/07/11 10:09:28;;;;;;;7.55;1.83;;;;;;;21.01;48.77;101325.63;5033817;28;20057;-73
2022/07/11 10:11:56;;;;;;;6.53;1.20;;;;;;;20.99;47.18;101331.16;5027618;28;20512;-73
2022/07/11 10:14:23;;;;;;;5.32;1.40;;;;;;;21.20;47.33;101325.63;5047752;28;20052;-73
2022/07/11 10:17:01;;;;;;;7.95;1.23;;;;;;;21.78;46.39;101330.91;5030054;28;20132;-73
2022/07/11 10:19:56;;;;;;;6.18;1.38;;;;;;;21.79;45.26;101318.34;5051082;28;20079;-73
2022/07/11 10:22:29;;;;;;;3.83;1.10;;;;;;;21.82;45.25;101328.78;5050601;28;20537;-73
2022/07/11 10:25:05;;;;;;;5.35;1.35;;;;;;;21.74;45.49;101324.13;5030122;28;20520;-73
2022/07/11 10:28:15;;;;;;;4.82;1.33;;;;;;;21.60;44.92;101321.94;5013122;28;20122;-73
2022/07/11 10:30:46;;;;;;;5.28;1.27;;;;;;;21.29;44.48;101326.59;5003377;28;20057;-74
2022/07/11 10:33:15;;;;;;;12.80;1.90;;;;;;;21.26;45.11;101319.72;5037601;28;20433;-72
2022/07/11 10:35:47;;;;;;;4.10;0.80;;;;;;;21.54;43.75;101318.00;5039960;28;20049;-73
2022/07/11 10:38:14;;;;;;;8.00;1.50;;;;;;;21.76;44.03;101315.97;5032628;28;20049;-73
2022/07/11 10:40:48;;;;;;;7.45;1.30;;;;;;;21.88;44.66;101312.09;5053366;28;20053;-73
2022/07/11 10:43:25;;;;;;;7.93;1.70;;;;;;;21.68;44.98;101311.34;5044597;28;20136;-74
2022/07/11 10:45:59;;;;;;;10.65;1.67;;;;;;;21.68;43.48;101322.06;5045402;28;20419;-73
2022/07/11 10:48:28;;;;;;;5.80;1.23;;;;;;;21.56;42.83;101316.00;5049411;28;20053;-75
2022/07/11 10:51:08;;;;;;;4.13;1.02;;;;;;;21.22;43.61;101321.00;5008583;28;20056;-74
2022/07/11 10:53:46;;;;;;;4.68;0.98;;;;;;;21.31;44.56;101308.56;5012634;28;20052;-73
2022/07/11 10:56:19;;;;;;;3.88;1.05;;;;;;;21.54;44.72;101307.28;5010476;28;20407;-73
2022/07/11 10:59:15;;;;;;;11.77;1.55;;;;;;;21.87;44.13;101310.41;5030146;28;20492;-73
2022/07/11 11:02:01;;;;;;;3.63;0.82;;;;;;;22.08;43.86;101316.41;5010221;28;20415;-73
2022/07/11 11:05:03;;;;;;;7.03;1.05;;;;;;;22.37;43.49;101316.25;5046924;28;20061;-74
2022/07/11 11:07:31;;;;;;;5.15;1.10;;;;;;;22.28;41.94;101313.63;5026863;28;20059;-73
2022/07/11 11:09:59;;;;;;;6.13;1.65;;;;;;;22.29;42.25;101318.88;5010017;28;20049;-74
2022/07/11 11:13:04;;;;;;;7.90;1.50;;;;;;;22.36;41.92;101317.25;5028000;28;20037;-73
2022/07/11 11:15:37;;;;;;;11.02;1.40;;;;;;;22.63;40.18;101313.69;5061982;28;20064;-74
2022/07/11 11:18:23;;;;;;;3.47;1.05;;;;;;;22.49;39.77;101312.38;5031763;28;20049;-74
2022/07/11 11:21:04;;;;;;;4.45;1.10;;;;;;;22.64;40.72;101310.00;5047151;28;20199;-74
2022/07/11 11:23:41;;;;;;;5.15;1.20;;;;;;;22.70;40.85;101306.75;5030679;28;20080;-74
2022/07/11 11:26:20;;;;;;;4.00;1.10;;;;;;;22.57;40.75;101308.94;5033376;28;20054;-74
2022/07/11 11:29:05;;;;;;;5.85;1.00;;;;;;;22.82;40.93;101306.50;5027815;28;20057;-74
2022/07/11 11:31:33;;;;;;;2.10;0.77;;;;;;;23.38;40.67;101299.94;5026449;28;20050;-74
2022/07/11 11:34:02;;;;;;;5.05;1.02;;;;;;;23.57;39.53;101302.44;5028247;28;20038;-73
2022/07/11 11:36:29;;;;;;;3.45;0.93;;;;;;;23.71;38.78;101301.03;5039271;28;20455;-73
2022/07/11 11:38:57;;;;;;;2.67;0.80;;;;;;;23.87;39.14;101302.97;5028483;28;20085;-74
2022/07/11 11:41:26;;;;;;;4.60;0.88;;;;;;;24.05;39.45;101303.72;5026447;28;20068;-74